Time;durP1;ratioP1;P1;durP2;ratioP2;P2;SDS_P1;SDS_P2;PMS_P1;PMS_P2;Temp;Humidity;BMP_temperature;BMP_pressure;BME280_temperature;BME280_humidity;BME280_pressure;Samples;Min_cycle;Max_cycle;Signal;HPM_P1;HPM_P2
2023/12/18 00:00:26;;;;;;;3.37;2.70;;;;;;;;;;6273984;28;20197;-62
2023/12/18 00:03:29;;;;;;;4.67;3.40;;;;;;;;;;6268311;28;20266;-62
2023/12/18 00:06:30;;;;;;;5.13;3.40;;;;;;;;;;6298219;28;20269;-62
2023/12/18 00:09:31;;;;;;;5.50;3.80;;;;;;;;;;6277496;28;20214;-62
2023/12/18 00:12:32;;;;;;;5.70;3.37;;;;;;;;;;6272900;28;20199;-62
2023/12/18 00:15:33;;;;;;;5.20;3.20;;;;;;;;;;6270498;28;20195;-62
2023/12/18 00:18:35;;;;;;;5.13;2.70;;;;;;;;;;6323627;28;20252;-62
2023/12/18 00:21:36;;;;;;;4.07;3.00;;;;;;;;;;6296546;28;20195;-62
2023/12/18 00:24:37;;;;;;;4.10;2.90;;;;;;;;;;6293593;28;20192;-62
2023/12/18 00:27:38;;;;;;;4.57;2.60;;;;;;;;;;6272518;28;20242;-62
2023/12/18 00:30:39;;;;;;;4.50;2.83;;;;;;;;;;6288739;28;20272;-62
2023/12/18 00:33:40;;;;;;;2.60;2.40;;;;;;;;;;6292133;28;20339;-62
2023/12/18 00:36:42;;;;;;;2.83;2.40;;;;;;;;;;6314310;28;20188;-62
2023/12/18 00:39:43;;;;;;;3.80;2.53;;;;;;;;;;6306640;28;20188;-62
2023/12/18 00:42:45;;;;;;;4.33;2.80;;;;;;;;;;6280364;28;20193;-62
2023/12/18 00:45:46;;;;;;;4.67;3.07;;;;;;;;;;6269554;28;20355;-62
2023/12/18 00:48:47;;;;;;;4.13;2.90;;;;;;;;;;6284791;28;20256;-62
2023/12/18 00:51:48;;;;;;;5.60;2.73;;;;;;;;;;6311029;28;20213;-62
2023/12/18 00:54:49;;;;;;;3.97;2.77;;;;;;;;;;6286401;28;20193;-62
2023/12/18 00:57:51;;;;;;;4.17;2.80;;;;;;;;;;6275679;28;20201;-62
2023/12/18 01:00:52;;;;;;;4.80;2.83;;;;;;;;;;6273943;28;20201;-62
2023/12/18 01:03:53;;;;;;;7.17;3.73;;;;;;;;;;6285514;28;20202;-62
2023/12/18 01:06:54;;;;;;;5.57;3.37;;;;;;;;;;6291893;28;20220;-62
2023/12/18 01:09:58;;;;;;;7.10;3.63;;;;;;;;;;6300714;28;20193;-62
2023/12/18 01:12:59;;;;;;;5.00;3.30;;;;;;;;;;6286035;28;20279;-62
2023/12/18 01:16:02;;;;;;;4.43;3.70;;;;;;;;;;6284657;28;20219;-62
2023/12/18 01:19:04;;;;;;;4.10;3.10;;;;;;;;;;6281204;28;20248;-62
2023/12/18 01:22:05;;;;;;;4.77;3.10;;;;;;;;;;6312090;28;20212;-62
2023/12/18 01:25:07;;;;;;;4.83;3.07;;;;;;;;;;6289295;28;20232;-62
2023/12/18 01:28:08;;;;;;;5.37;3.70;;;;;;;;;;6273606;28;20192;-62
2023/12/18 01:31:09;;;;;;;3.40;2.80;;;;;;;;;;6312942;28;20267;-62
2023/12/18 01:34:10;;;;;;;4.87;2.83;;;;;;;;;;6273974;28;20188;-62
2023/12/18 01:37:11;;;;;;;4.30;2.87;;;;;;;;;;6290714;28;20203;-62
2023/12/18 01:40:12;;;;;;;4.00;3.00;;;;;;;;;;6290204;28;20200;-62
2023/12/18 01:43:28;;;;;;;5.80;3.20;;;;;;;;;;6294539;28;20214;-62
2023/12/18 01:46:30;;;;;;;4.60;3.00;;;;;;;;;;6311312;28;20265;-62
2023/12/18 01:49:31;;;;;;;4.37;3.30;;;;;;;;;;6276643;28;20204;-62
2023/12/18 01:52:33;;;;;;;4.87;3.00;;;;;;;;;;6293568;28;20208;-62
2023/12/18 01:55:34;;;;;;;3.30;2.70;;;;;;;;;;6297573;28;20189;-62
2023/12/18 01:58:35;;;;;;;4.50;2.97;;;;;;;;;;6282240;28;20260;-62
2023/12/18 02:01:36;;;;;;;4.57;2.67;;;;;;;;;;6306584;28;20246;-62
2023/12/18 02:04:37;;;;;;;3.23;2.60;;;;;;;;;;6310349;28;20204;-62
2023/12/18 02:07:39;;;;;;;4.50;2.80;;;;;;;;;;6284480;28;20215;-62
2023/12/18 02:10:40;;;;;;;2.60;2.40;;;;;;;;;;6293696;28;20200;-62
2023/12/18 02:13:41;;;;;;;4.33;2.90;;;;;;;;;;6307024;28;20210;-62
2023/12/18 02:16:42;;;;;;;5.60;3.07;;;;;;;;;;6309521;28;20241;-62
2023/12/18 02:19:43;;;;;;;4.57;2.97;;;;;;;;;;6278916;28;20230;-62
2023/12/18 02:22:47;;;;;;;5.30;3.10;;;;;;;;;;6317677;28;20180;-62
2023/12/18 02:25:49;;;;;;;6.53;2.80;;;;;;;;;;6311050;28;20235;-62
2023/12/18 02:28:50;;;;;;;2.97;2.63;;;;;;;;;;6301170;28;20181;-62
2023/12/18 02:31:51;;;;;;;4.20;2.73;;;;;;;;;;6276601;28;20214;-62
2023/12/18 02:34:52;;;;;;;3.73;2.70;;;;;;;;;;6286764;28;20184;-62
2023/12/18 02:37:53;;;;;;;4.33;2.90;;;;;;;;;;6287959;28;20193;-62
2023/12/18 02:40:54;;;;;;;2.63;2.40;;;;;;;;;;6299543;28;20188;-62
2023/12/18 02:43:57;;;;;;;3.30;2.50;;;;;;;;;;6273218;28;20231;-62
2023/12/18 02:46:58;;;;;;;3.33;2.43;;;;;;;;;;6290630;28;20275;-62
2023/12/18 02:49:59;;;;;;;3.43;2.50;;;;;;;;;;6316779;28;20192;-62
2023/12/18 02:53:00;;;;;;;4.20;3.00;;;;;;;;;;6284344;28;20204;-62
2023/12/18 02:56:01;;;;;;;4.30;2.70;;;;;;;;;;6287138;28;20193;-62
2023/12/18 02:59:02;;;;;;;3.67;2.60;;;;;;;;;;6282685;28;20196;-62
2023/12/18 03:02:03;;;;;;;3.83;2.40;;;;;;;;;;6278344;28;20199;-62
2023/12/18 03:05:04;;;;;;;3.03;2.37;;;;;;;;;;6317675;28;20285;-62
2023/12/18 03:08:06;;;;;;;3.77;2.77;;;;;;;;;;6299646;28;20230;-62
2023/12/18 03:11:07;;;;;;;3.07;2.50;;;;;;;;;;6289826;28;20241;-62
2023/12/18 03:14:09;;;;;;;3.53;2.87;;;;;;;;;;6271545;28;20189;-62
2023/12/18 03:17:10;;;;;;;2.80;2.50;;;;;;;;;;6302030;28;20197;-62
2023/12/18 03:20:11;;;;;;;2.40;2.10;;;;;;;;;;6282808;28;20191;-62
2023/12/18 03:23:12;;;;;;;2.73;2.50;;;;;;;;;;6281414;28;20216;-62
2023/12/18 03:26:13;;;;;;;3.67;2.80;;;;;;;;;;6289034;28;20249;-62
2023/12/18 03:29:14;;;;;;;4.90;2.50;;;;;;;;;;6278879;28;20185;-62
2023/12/18 03:32:15;;;;;;;4.03;2.40;;;;;;;;;;6269759;28;20192;-62
2023/12/18 03:35:16;;;;;;;4.27;2.77;;;;;;;;;;6293567;28;20200;-62
2023/12/18 03:38:17;;;;;;;3.20;2.50;;;;;;;;;;6295015;28;20208;-62
2023/12/18 03:41:18;;;;;;;3.80;2.63;;;;;;;;;;6288335;28;20666;-62
2023/12/18 03:44:19;;;;;;;5.13;2.73;;;;;;;;;;6283032;28;20339;-62
2023/12/18 03:47:20;;;;;;;3.20;2.47;;;;;;;;;;6303493;28;20238;-62
2023/12/18 03:50:21;;;;;;;4.03;2.50;;;;;;;;;;6301905;28;20704;-62
2023/12/18 03:53:22;;;;;;;4.03;2.83;;;;;;;;;;6282253;28;20192;-62
2023/12/18 03:56:23;;;;;;;5.00;3.10;;;;;;;;;;6288338;28;20199;-62
2023/12/18 03:59:25;;;;;;;4.73;2.77;;;;;;;;;;6288664;28;20198;-62
2023/12/18 04:02:26;;;;;;;3.60;3.00;;;;;;;;;;6292962;28;20199;-62
2023/12/18 04:05:27;;;;;;;3.63;2.50;;;;;;;;;;6289054;28;20211;-62
2023/12/18 04:08:28;;;;;;;3.53;2.90;;;;;;;;;;6280494;28;20268;-62
2023/12/18 04:11:29;;;;;;;4.27;2.93;;;;;;;;;;6308076;28;20188;-61
2023/12/18 04:14:30;;;;;;;3.13;2.50;;;;;;;;;;6291275;28;20188;-62
2023/12/18 04:17:31;;;;;;;4.60;2.87;;;;;;;;;;6279370;28;20192;-62
2023/12/18 04:20:32;;;;;;;2.60;2.33;;;;;;;;;;6336885;28;20199;-62
2023/12/18 04:23:33;;;;;;;3.67;2.80;;;;;;;;;;6288713;28;20202;-61
2023/12/18 04:26:34;;;;;;;2.93;2.50;;;;;;;;;;6281355;28;20226;-62
2023/12/18 04:29:35;;;;;;;3.80;2.50;;;;;;;;;;6288397;28;20195;-62
2023/12/18 04:32:36;;;;;;;5.77;3.13;;;;;;;;;;6276584;28;20195;-62
2023/12/18 04:35:37;;;;;;;2.83;2.60;;;;;;;;;;6287104;28;20202;-62
2023/12/18 04:38:39;;;;;;;4.27;3.07;;;;;;;;;;6321043;28;20215;-62
2023/12/18 04:41:40;;;;;;;3.17;2.70;;;;;;;;;;6292190;28;20280;-62
2023/12/18 04:44:42;;;;;;;3.33;2.40;;;;;;;;;;6282920;28;20230;-61
2023/12/18 04:47:43;;;;;;;4.67;2.60;;;;;;;;;;6314961;28;20211;-61
2023/12/18 04:50:44;;;;;;;3.63;2.60;;;;;;;;;;6281968;28;20200;-62
2023/12/18 04:53:45;;;;;;;4.40;3.20;;;;;;;;;;6290238;28;20196;-62
2023/12/18 04:56:46;;;;;;;4.20;2.83;;;;;;;;;;6291775;28;20204;-61
2023/12/18 04:59:47;;;;;;;4.60;2.63;;;;;;;;;;6295999;28;20191;-61
2023/12/18 05:02:48;;;;;;;4.10;2.70;;;;;;;;;;6312625;28;20267;-62
2023/12/18 05:05:49;;;;;;;3.27;2.43;;;;;;;;;;6309229;28;20298;-62
2023/12/18 05:08:50;;;;;;;4.40;2.83;;;;;;;;;;6299346;28;20204;-62
2023/12/18 05:11:51;;;;;;;3.27;2.47;;;;;;;;;;6281213;28;20193;-62
2023/12/18 05:14:53;;;;;;;3.63;2.53;;;;;;;;;;6279460;28;20265;-62
2023/12/18 05:17:54;;;;;;;4.10;2.50;;;;;;;;;;6284962;28;20197;-63
2023/12/18 05:20:57;;;;;;;3.87;2.40;;;;;;;;;;6284053;28;20212;-62
2023/12/18 05:23:58;;;;;;;4.47;2.63;;;;;;;;;;6285100;28;20231;-62
2023/12/18 05:26:59;;;;;;;3.93;2.43;;;;;;;;;;6277055;28;20304;-62
2023/12/18 05:30:00;;;;;;;3.43;2.90;;;;;;;;;;6290602;28;20284;-62
2023/12/18 05:33:02;;;;;;;4.03;2.40;;;;;;;;;;6318469;28;20187;-62
2023/12/18 05:36:03;;;;;;;4.40;2.70;;;;;;;;;;6294809;28;20204;-63
2023/12/18 05:39:04;;;;;;;3.77;2.13;;;;;;;;;;6302957;28;20196;-62
2023/12/18 05:42:05;;;;;;;3.33;2.80;;;;;;;;;;6294570;28;20666;-62
2023/12/18 05:45:07;;;;;;;3.87;2.50;;;;;;;;;;6295048;28;20240;-62
2023/12/18 05:48:08;;;;;;;2.90;2.20;;;;;;;;;;6282643;28;20221;-62
2023/12/18 05:51:19;;;;;;;3.37;2.43;;;;;;;;;;6289318;28;20202;-62
2023/12/18 05:54:20;;;;;;;5.63;2.60;;;;;;;;;;6305108;28;20188;-62
2023/12/18 05:57:21;;;;;;;4.67;2.43;;;;;;;;;;6287671;28;20222;-62
2023/12/18 06:00:22;;;;;;;3.40;2.80;;;;;;;;;;6283897;28;20203;-62
2023/12/18 06:03:23;;;;;;;3.03;2.17;;;;;;;;;;6281424;28;20247;-62
2023/12/18 06:06:24;;;;;;;4.23;3.07;;;;;;;;;;6305580;28;20310;-62
2023/12/18 06:09:25;;;;;;;3.63;2.63;;;;;;;;;;6293836;28;20193;-62
2023/12/18 06:12:26;;;;;;;3.33;3.03;;;;;;;;;;6292232;28;20195;-62
2023/12/18 06:15:27;;;;;;;3.03;2.40;;;;;;;;;;6276439;28;20189;-62
2023/12/18 06:18:29;;;;;;;2.87;2.30;;;;;;;;;;6276989;28;20278;-62
2023/12/18 06:21:30;;;;;;;5.27;2.70;;;;;;;;;;6306895;28;20199;-62
2023/12/18 06:24:31;;;;;;;5.07;2.97;;;;;;;;;;6278371;28;20193;-64
2023/12/18 06:27:32;;;;;;;3.33;2.90;;;;;;;;;;6302691;28;20261;-63
2023/12/18 06:30:33;;;;;;;3.30;2.57;;;;;;;;;;6290444;28;20199;-63
2023/12/18 06:33:34;;;;;;;4.40;2.63;;;;;;;;;;6286966;28;20203;-63
2023/12/18 06:36:35;;;;;;;4.30;3.03;;;;;;;;;;6286853;28;20211;-63
2023/12/18 06:39:36;;;;;;;4.03;2.70;;;;;;;;;;6284791;28;20252;-63
2023/12/18 06:42:37;;;;;;;4.50;2.77;;;;;;;;;;6284834;28;20212;-63
2023/12/18 06:45:38;;;;;;;3.40;2.73;;;;;;;;;;6307177;28;20323;-62
2023/12/18 06:48:42;;;;;;;3.60;2.77;;;;;;;;;;6290595;28;20188;-61
2023/12/18 06:51:44;;;;;;;4.40;3.20;;;;;;;;;;6285602;28;20208;-62
2023/12/18 06:54:45;;;;;;;5.03;3.10;;;;;;;;;;6299913;28;20223;-62
2023/12/18 06:57:46;;;;;;;3.93;2.80;;;;;;;;;;6289310;28;20288;-62
2023/12/18 07:00:47;;;;;;;3.87;3.10;;;;;;;;;;6304025;28;20188;-63
2023/12/18 07:03:48;;;;;;;4.53;3.53;;;;;;;;;;6291199;28;20191;-63
2023/12/18 07:06:49;;;;;;;5.47;3.50;;;;;;;;;;6294167;28;20240;-62
2023/12/18 07:09:50;;;;;;;3.93;3.17;;;;;;;;;;6288858;28;20219;-62
2023/12/18 07:12:52;;;;;;;6.70;3.10;;;;;;;;;;6277106;28;20200;-62
2023/12/18 07:15:53;;;;;;;3.83;3.23;;;;;;;;;;6299918;28;20195;-63
2023/12/18 07:18:55;;;;;;;4.70;3.00;;;;;;;;;;6318589;28;20185;-62
2023/12/18 07:21:56;;;;;;;4.83;3.10;;;;;;;;;;6317643;28;20227;-62
2023/12/18 07:24:57;;;;;;;4.57;3.23;;;;;;;;;;6278514;28;20699;-62
2023/12/18 07:27:58;;;;;;;5.47;3.50;;;;;;;;;;6297851;28;20261;-62
2023/12/18 07:31:00;;;;;;;3.07;2.77;;;;;;;;;;6304432;28;20196;-63
2023/12/18 07:34:01;;;;;;;6.27;3.33;;;;;;;;;;6289774;28;20254;-62
2023/12/18 07:37:02;;;;;;;4.70;3.00;;;;;;;;;;6302699;28;20181;-62
2023/12/18 07:40:03;;;;;;;3.50;2.67;;;;;;;;;;6279468;28;20197;-62
2023/12/18 07:43:05;;;;;;;4.03;2.63;;;;;;;;;;6284316;28;20204;-62
2023/12/18 07:46:06;;;;;;;4.27;3.07;;;;;;;;;;6289889;28;20235;-62
2023/12/18 07:49:07;;;;;;;4.70;2.87;;;;;;;;;;6285021;28;20707;-62
2023/12/18 07:52:08;;;;;;;4.40;2.67;;;;;;;;;;6285721;28;20252;-62
2023/12/18 07:55:09;;;;;;;4.63;3.37;;;;;;;;;;6284968;28;20188;-62
2023/12/18 07:58:10;;;;;;;3.23;2.90;;;;;;;;;;6306280;28;20192;-62
2023/12/18 08:01:11;;;;;;;5.10;2.87;;;;;;;;;;6280565;28;20211;-62
2023/12/18 08:04:13;;;;;;;4.40;3.33;;;;;;;;;;6279321;28;20326;-62
2023/12/18 08:07:14;;;;;;;2.97;2.63;;;;;;;;;;6304419;28;20219;-62
2023/12/18 08:10:15;;;;;;;4.43;3.20;;;;;;;;;;6309358;28;20192;-62
2023/12/18 08:13:16;;;;;;;4.73;2.77;;;;;;;;;;6285719;28;20196;-62
2023/12/18 08:16:18;;;;;;;2.63;2.43;;;;;;;;;;6289067;28;20282;-62
2023/12/18 08:19:19;;;;;;;3.43;2.80;;;;;;;;;;6284221;28;20258;-62
2023/12/18 08:22:20;;;;;;;4.10;2.73;;;;;;;;;;6320754;28;20190;-62
2023/12/18 08:25:21;;;;;;;3.63;2.97;;;;;;;;;;6293655;28;20192;-62
2023/12/18 08:28:22;;;;;;;4.17;3.10;;;;;;;;;;6295359;28;20198;-62
2023/12/18 08:31:24;;;;;;;5.23;3.57;;;;;;;;;;6301648;28;20283;-62
2023/12/18 08:34:25;;;;;;;3.73;2.87;;;;;;;;;;6277909;28;20249;-62
2023/12/18 08:37:26;;;;;;;3.77;2.80;;;;;;;;;;6271159;28;20246;-62
2023/12/18 08:40:29;;;;;;;3.60;2.57;;;;;;;;;;6299604;28;20177;-62
2023/12/18 08:43:30;;;;;;;3.23;2.30;;;;;;;;;;6284960;28;20185;-62
2023/12/18 08:46:31;;;;;;;3.33;2.93;;;;;;;;;;6273690;28;20243;-62
2023/12/18 08:49:32;;;;;;;3.87;3.30;;;;;;;;;;6309630;28;20206;-62
2023/12/18 08:52:33;;;;;;;3.73;3.23;;;;;;;;;;6291715;28;20259;-62
2023/12/18 08:55:38;;;;;;;4.10;3.03;;;;;;;;;;6291226;28;20205;-62
2023/12/18 08:58:40;;;;;;;4.10;3.40;;;;;;;;;;6295992;28;20197;-62
2023/12/18 09:01:41;;;;;;;5.47;3.00;;;;;;;;;;6291634;28;20199;-62
2023/12/18 09:04:42;;;;;;;4.20;3.03;;;1.00;87.20;;;;;;6321024;28;20195;-62
2023/12/18 09:07:43;;;;;;;2.67;2.40;;;2.90;85.40;;;;;;6307222;28;20213;-62
2023/12/18 09:10:43;;;;;;;3.93;2.80;;;3.00;85.30;;;;;;6285755;28;20193;-62
2023/12/18 09:13:44;;;;;;;4.03;2.57;;;3.10;85.10;;;;;;6285603;28;20216;-62
2023/12/18 09:16:45;;;;;;;5.53;3.20;;;3.10;84.70;;;;;;6273735;28;20204;-62
2023/12/18 09:19:45;;;;;;;3.70;2.60;;;3.30;83.70;;;;;;6297867;28;20191;-62
2023/12/18 09:22:48;;;;;;;3.77;2.80;;;3.30;83.60;;;;;;6290483;28;20198;-62
2023/12/18 09:25:49;;;;;;;3.30;2.87;;;3.50;83.00;;;;;;6301616;28;20212;-62
2023/12/18 09:28:50;;;;;;;3.73;2.87;;;3.60;82.90;;;;;;6307154;28;20194;-62
2023/12/18 09:31:50;;;;;;;4.87;2.90;;;3.60;82.80;;;;;;6283454;28;20180;-62
2023/12/18 09:34:51;;;;;;;3.47;2.40;;;3.70;82.50;;;;;;6275494;28;20195;-62
2023/12/18 09:37:52;;;;;;;4.60;2.77;;;3.80;82.20;;;;;;6279715;28;20199;-62
2023/12/18 09:40:52;;;;;;;3.47;3.13;;;3.90;82.30;;;;;;6265785;28;20191;-62
2023/12/18 09:43:55;;;;;;;7.57;3.20;;;;;;;;;;6309329;28;20300;-62
2023/12/18 09:47:00;;;;;;;3.63;2.77;;;24.00;50.00;;;;;;6284160;28;20220;-62
2023/12/18 09:50:01;;;;;;;5.27;3.43;;;4.20;80.40;;;;;;6272499;28;20185;-62
2023/12/18 09:53:10;;;;;;;4.17;2.67;;;4.30;79.90;;;;;;6259804;28;20224;-62
2023/12/18 09:56:11;;;;;;;6.97;3.20;;;4.40;79.80;;;;;;6290128;28;20197;-62
2023/12/18 09:59:12;;;;;;;5.67;2.90;;;4.50;80.00;;;;;;6277183;28;20219;-62
2023/12/18 10:02:14;;;;;;;4.53;3.23;;;4.60;79.30;;;;;;6271444;28;20189;-62
2023/12/18 10:05:15;;;;;;;2.80;2.50;;;4.70;79.20;;;;;;6281113;28;20193;-62
2023/12/18 10:08:16;;;;;;;3.27;2.33;;;4.90;78.60;;;;;;6275845;28;20205;-62
2023/12/18 10:11:25;;;;;;;4.60;2.70;;;5.00;77.20;;;;;;6279140;28;20188;-62
2023/12/18 10:14:26;;;;;;;5.63;2.77;;;5.10;76.10;;;;;;6302699;28;20633;-62
2023/12/18 10:17:27;;;;;;;3.13;2.37;;;5.30;75.20;;;;;;6255424;28;20200;-62
2023/12/18 10:20:28;;;;;;;3.00;2.40;;;;;;;;;;6276754;28;20184;-62
2023/12/18 10:23:35;;;;;;;3.97;2.30;;;;;;;;;;6316197;28;20185;-62
2023/12/18 10:26:36;;;;;;;3.50;2.60;;;;;;;;;;6311111;28;20211;-62
2023/12/18 10:29:37;;;;;;;4.10;2.63;;;;;;;;;;6291467;28;20279;-62
2023/12/18 10:32:40;;;;;;;3.43;2.37;;;5.50;74.50;;;;;;6288236;28;20180;-62
2023/12/18 10:35:41;;;;;;;2.77;1.83;;;6.00;71.80;;;;;;6299371;28;20189;-62
2023/12/18 10:38:44;;;;;;;4.10;2.40;;;6.10;70.90;;;;;;6278072;28;20197;-62
2023/12/18 10:41:50;;;;;;;6.03;2.83;;;6.20;70.40;;;;;;6302420;28;20189;-62
2023/12/18 10:44:53;;;;;;;2.97;2.20;;;6.30;70.20;;;;;;6300895;28;20228;-62
2023/12/18 10:47:57;;;;;;;4.43;2.33;;;6.40;69.90;;;;;;6290052;28;20210;-62
2023/12/18 10:50:59;;;;;;;3.10;2.07;;;6.50;70.30;;;;;;6304125;28;20189;-62
2023/12/18 10:54:02;;;;;;;5.10;2.27;;;;;;;;;;6282140;28;20183;-62
2023/12/18 10:57:05;;;;;;;4.83;2.40;;;;;;;;;;6314038;28;20264;-62
2023/12/18 11:00:08;;;;;;;3.60;1.70;;;;;;;;;;6287602;28;20296;-62
2023/12/18 11:03:09;;;;;;;4.30;2.30;;;;;;;;;;6284678;28;20197;-62
2023/12/18 11:06:10;;;;;;;3.10;2.17;;;;;;;;;;6315511;28;20199;-62
2023/12/18 11:09:11;;;;;;;3.43;2.03;;;;;;;;;;6280419;28;20192;-62
2023/12/18 11:12:13;;;;;;;4.57;2.40;;;;;;;;;;6290978;28;20184;-62
2023/12/18 11:15:19;;;;;;;5.30;2.10;;;;;;;;;;6318646;28;20193;-62
2023/12/18 11:18:39;;;;;;;3.53;2.30;;;;;;;;;;6304453;28;20290;-62
2023/12/18 11:21:41;;;;;;;3.93;2.30;;;;;;;;;;6323919;28;20189;-62
2023/12/18 11:24:45;;;;;;;4.03;2.37;;;;;;;;;;6286647;28;20219;-62
2023/12/18 11:27:50;;;;;;;2.57;1.90;;;6.70;68.10;;;;;;6309145;28;20201;-62
2023/12/18 11:30:51;;;;;;;3.07;2.10;;;7.70;65.00;;;;;;6302704;28;20187;-62
2023/12/18 11:34:02;;;;;;;4.67;2.57;;;;;;;;;;6282201;28;20180;-62
2023/12/18 11:37:06;;;;;;;3.23;2.30;;;;;;;;;;6311956;28;20279;-62
2023/12/18 11:40:27;;;;;;;2.53;2.23;;;;;;;;;;6301481;28;20216;-61
2023/12/18 11:43:36;;;;;;;2.43;2.10;;;;;;;;;;6306741;28;20192;-61
2023/12/18 11:46:38;;;;;;;4.80;2.20;;;;;;;;;;6301965;28;20225;-61
2023/12/18 11:49:40;;;;;;;3.33;1.90;;;;;;;;;;6291904;28;20188;-62
2023/12/18 11:52:41;;;;;;;2.97;2.07;;;;;;;;;;6297312;28;20191;-62
2023/12/18 11:55:48;;;;;;;6.17;1.90;;;;;;;;;;6270262;28;20215;-62
2023/12/18 11:58:50;;;;;;;3.23;2.40;;;;;;;;;;6304243;28;20191;-62
2023/12/18 12:01:52;;;;;;;3.37;2.03;;;;;;;;;;6302108;28;20712;-62
2023/12/18 12:04:54;;;;;;;2.33;2.13;;;;;;;;;;6298134;28;20184;-61
2023/12/18 12:07:55;;;;;;;2.67;2.00;;;;;;;;;;6271218;28;20304;-61
2023/12/18 12:10:57;;;;;;;1.40;1.30;;;;;;;;;;6312103;28;20285;-61
2023/12/18 12:13:58;;;;;;;5.70;2.13;;;;;;;;;;6281999;28;20182;-61
2023/12/18 12:17:05;;;;;;;3.33;1.70;;;;;;;;;;6271080;28;20243;-61
2023/12/18 12:20:09;;;;;;;3.73;2.03;;;;;;;;;;6313682;28;20180;-61
2023/12/18 12:23:11;;;;;;;3.17;1.90;;;;;;;;;;6310033;28;20181;-61
2023/12/18 12:26:12;;;;;;;4.17;2.20;;;;;;;;;;6291113;28;20260;-61
2023/12/18 12:29:14;;;;;;;3.40;1.97;;;;;;;;;;6281870;28;20184;-61
2023/12/18 12:32:16;;;;;;;3.63;2.03;;;;;;;;;;6326566;28;20683;-61
2023/12/18 12:35:18;;;;;;;3.57;2.50;;;;;;;;;;6284553;28;20195;-61
2023/12/18 12:38:19;;;;;;;2.53;1.90;;;;;;;;;;6285217;28;20216;-61
2023/12/18 12:41:20;;;;;;;3.80;2.20;;;;;;;;;;6307897;28;20278;-61
2023/12/18 12:44:21;;;;;;;3.00;1.83;;;;;;;;;;6283850;28;20279;-61
2023/12/18 12:47:22;;;;;;;4.97;2.30;;;;;;;;;;6301432;28;20219;-61
2023/12/18 12:50:23;;;;;;;4.23;1.93;;;;;;;;;;6279304;28;20278;-61
2023/12/18 12:53:24;;;;;;;2.90;1.67;;;;;;;;;;6270597;28;20192;-61
2023/12/18 12:56:25;;;;;;;2.83;1.73;;;;;;;;;;6281341;28;20188;-61
2023/12/18 12:59:27;;;;;;;3.93;2.13;;;;;;;;;;6295265;28;20231;-61
2023/12/18 13:02:28;;;;;;;2.20;1.93;;;;;;;;;;6309297;28;20193;-62
2023/12/18 13:05:30;;;;;;;2.53;1.60;;;;;;;;;;6284132;28;20246;-61
2023/12/18 13:08:33;;;;;;;2.43;1.87;;;;;;;;;;6321475;28;20203;-61
2023/12/18 13:11:38;;;;;;;3.03;2.03;;;;;;;;;;6299530;28;20226;-61
2023/12/18 13:14:39;;;;;;;4.90;1.90;;;;;;;;;;6299980;28;20197;-61
2023/12/18 13:17:40;;;;;;;2.83;1.73;;;;;;;;;;6312925;28;20224;-61
2023/12/18 13:20:41;;;;;;;4.10;1.60;;;;;;;;;;6286624;28;20196;-61
2023/12/18 13:23:42;;;;;;;2.53;1.60;;;;;;;;;;6294335;28;20278;-61
2023/12/18 13:26:44;;;;;;;2.63;1.90;;;;;;;;;;6291288;28;20257;-61
2023/12/18 13:29:45;;;;;;;3.03;1.90;;;;;;;;;;6307537;28;20215;-62
2023/12/18 13:32:46;;;;;;;3.43;2.10;;;;;;;;;;6280523;28;20197;-61
2023/12/18 13:35:47;;;;;;;2.17;1.73;;;;;;;;;;6283612;28;20211;-62
2023/12/18 13:38:48;;;;;;;4.30;1.77;;;;;;;;;;6291492;28;20280;-62
2023/12/18 13:41:49;;;;;;;4.10;1.63;;;;;;;;;;6290286;28;20189;-61
2023/12/18 13:44:50;;;;;;;2.70;1.93;;;;;;;;;;6306443;28;20323;-61
2023/12/18 13:47:51;;;;;;;3.23;2.23;;;;;;;;;;6283766;28;20208;-61
2023/12/18 13:50:52;;;;;;;4.23;1.70;;;;;;;;;;6284157;28;20184;-61
2023/12/18 13:53:53;;;;;;;2.43;1.70;;;;;;;;;;6316653;28;20192;-61
2023/12/18 13:56:54;;;;;;;3.57;1.70;;;;;;;;;;6286893;28;20200;-61
2023/12/18 13:59:55;;;;;;;4.37;1.83;;;;;;;;;;6307123;28;20185;-61
2023/12/18 14:02:56;;;;;;;2.97;1.80;;;;;;;;;;6291829;28;20238;-61
2023/12/18 14:05:57;;;;;;;2.57;1.77;;;;;;;;;;6277899;28;20262;-61
2023/12/18 14:08:59;;;;;;;3.77;1.90;;;;;;;;;;6282921;28;20194;-61
2023/12/18 14:12:00;;;;;;;4.63;2.00;;;;;;;;;;6289368;28;20196;-61
2023/12/18 14:15:01;;;;;;;2.67;1.70;;;;;;;;;;6310440;28;20194;-61
2023/12/18 14:18:01;;;;;;;2.53;1.80;;;7.80;64.50;;;;;;6292425;28;20201;-62
2023/12/18 14:21:02;;;;;;;3.47;2.10;;;11.00;55.00;;;;;;6266224;28;20221;-62
2023/12/18 14:24:03;;;;;;;4.10;1.90;;;11.00;55.50;;;;;;6267887;28;20208;-62
2023/12/18 14:27:04;;;;;;;6.10;2.37;;;11.00;54.70;;;;;;6264205;28;20247;-62
2023/12/18 14:30:06;;;;;;;2.43;2.00;;;10.90;54.30;;;;;;6282720;28;20192;-62
2023/12/18 14:33:06;;;;;;;4.23;2.07;;;10.80;54.60;;;;;;6292768;28;20283;-62
2023/12/18 14:36:07;;;;;;;3.50;2.23;;;10.70;54.20;;;;;;6273337;28;20250;-62
2023/12/18 14:39:08;;;;;;;3.30;1.80;;;10.60;54.60;;;;;;6282998;28;20205;-61
2023/12/18 14:42:11;;;;;;;3.37;1.77;;;10.50;55.20;;;;;;6251439;28;20194;-61
2023/12/18 14:45:12;;;;;;;3.13;1.97;;;10.40;55.40;;;;;;6259497;28;20232;-61
2023/12/18 14:48:13;;;;;;;3.53;1.93;;;10.30;56.10;;;;;;6266812;28;20318;-62
2023/12/18 14:51:14;;;;;;;3.77;2.20;;;10.20;56.50;;;;;;6293115;28;20193;-62
2023/12/18 14:54:14;;;;;;;3.30;2.40;;;10.00;57.90;;;;;;6270688;28;20196;-62
2023/12/18 14:57:15;;;;;;;3.03;2.20;;;9.70;58.60;;;;;;6281862;28;20220;-62
2023/12/18 15:00:16;;;;;;;5.77;2.57;;;9.50;60.40;;;;;;6288890;28;20249;-62
2023/12/18 15:03:16;;;;;;;4.13;2.30;;;9.40;61.30;;;;;;6264391;28;20201;-62
2023/12/18 15:06:17;;;;;;;3.17;2.40;;;9.20;61.70;;;;;;6268101;28;20204;-61
2023/12/18 15:09:21;;;;;;;5.10;2.60;;;9.00;62.50;;;;;;6263748;28;20188;-61
2023/12/18 15:12:23;;;;;;;3.23;2.37;;;8.80;62.90;;;;;;6261947;28;20189;-61
2023/12/18 15:15:23;;;;;;;4.27;2.10;;;8.70;62.50;;;;;;6269193;28;20329;-61
2023/12/18 15:18:24;;;;;;;2.57;2.10;;;8.60;63.50;;;;;;6265814;28;20184;-61
2023/12/18 15:21:25;;;;;;;3.40;2.37;;;8.40;63.90;;;;;;6300300;28;20224;-61
2023/12/18 15:24:25;;;;;;;2.27;2.00;;;8.30;64.80;;;;;;6277590;28;20194;-61
2023/12/18 15:27:26;;;;;;;3.00;1.80;;;8.20;65.60;;;;;;6264891;28;20205;-62
2023/12/18 15:30:27;;;;;;;2.73;2.13;;;;;;;;;;6253093;28;20215;-62
2023/12/18 15:33:29;;;;;;;3.33;2.30;;;;;;;;;;6318895;28;20245;-62
2023/12/18 15:36:30;;;;;;;3.70;2.63;;;;;;;;;;6301899;28;20528;-62
2023/12/18 15:39:31;;;;;;;3.43;2.43;;;;;;;;;;6279790;28;20319;-61
2023/12/18 15:42:32;;;;;;;3.47;2.80;;;;;;;;;;6281342;28;20288;-62
2023/12/18 15:45:33;;;;;;;5.93;3.10;;;8.00;66.10;;;;;;6282216;28;20243;-61
2023/12/18 15:48:34;;;;;;;4.60;3.53;;;7.40;67.70;;;;;;6259089;28;20205;-62
2023/12/18 15:51:34;;;;;;;5.03;3.30;;;7.20;68.20;;;;;;6270347;28;20241;-62
2023/12/18 15:54:35;;;;;;;5.17;3.17;;;7.20;68.50;;;;;;6269090;28;20200;-62
2023/12/18 15:57:36;;;;;;;4.60;2.87;;;7.10;69.30;;;;;;6289434;28;20270;-62
2023/12/18 16:00:37;;;;;;;6.03;3.17;;;;;;;;;;6289016;28;20216;-62
2023/12/18 16:03:39;;;;;;;3.77;2.67;;;;;;;;;;6288724;28;20246;-62
2023/12/18 16:06:40;;;;;;;4.83;2.73;;;;;;;;;;6295423;28;20216;-62
2023/12/18 16:09:41;;;;;;;3.90;2.77;;;;;;;;;;6303775;28;20177;-62
2023/12/18 16:12:42;;;;;;;5.07;3.87;;;;;;;;;;6280959;28;20191;-62
2023/12/18 16:15:43;;;;;;;4.47;3.40;;;;;;;;;;6279966;28;20188;-62
2023/12/18 16:18:44;;;;;;;6.30;3.40;;;;;;;;;;6282507;28;20218;-62
2023/12/18 16:21:45;;;;;;;3.80;3.17;;;7.00;69.40;;;;;;6286496;28;20488;-62
2023/12/18 16:24:46;;;;;;;5.00;3.23;;;6.10;72.00;;;;;;6264807;28;20210;-62
2023/12/18 16:27:47;;;;;;;4.13;2.90;;;6.00;72.20;;;;;;6274792;28;20240;-62
2023/12/18 16:30:49;;;;;;;3.20;2.63;;;6.00;72.10;;;;;;6277270;28;20192;-62
2023/12/18 16:33:50;;;;;;;5.97;3.23;;;5.90;72.50;;;;;;6271630;28;20196;-62
2023/12/18 16:36:51;;;;;;;4.00;3.50;;;;;;;;;;6271536;28;20197;-62
2023/12/18 16:39:54;;;;;;;5.67;4.37;;;;;;;;;;6320265;28;20244;-62
2023/12/18 16:42:54;;;;;;;9.97;5.43;;;5.90;73.00;;;;;;6294340;28;20333;-62
2023/12/18 16:45:55;;;;;;;7.23;5.17;;;5.70;73.60;;;;;;6276870;28;20256;-62
2023/12/18 16:48:56;;;;;;;7.37;5.33;;;5.50;73.90;;;;;;6270086;28;20208;-62
2023/12/18 16:51:56;;;;;;;9.47;5.73;;;5.50;74.30;;;;;;6287312;28;20199;-61
2023/12/18 16:54:58;;;;;;;10.10;4.87;;;5.40;74.30;;;;;;6269159;28;20216;-61
2023/12/18 16:57:59;;;;;;;5.97;4.23;;;5.30;74.20;;;;;;6317119;28;20776;-62
2023/12/18 17:01:03;;;;;;;8.53;4.30;;;5.30;74.60;;;;;;6284152;28;20197;-62
2023/12/18 17:04:05;;;;;;;9.13;5.03;;;5.20;75.00;;;;;;6287296;28;20253;-62
2023/12/18 17:07:05;;;;;;;6.17;4.23;;;5.10;74.90;;;;;;6291477;28;20224;-61
2023/12/18 17:10:07;;;;;;;6.03;3.90;;;5.10;75.40;;;;;;6276560;28;20278;-62
2023/12/18 17:13:12;;;;;;;5.57;4.20;;;5.10;75.60;;;;;;6276203;28;20279;-62
2023/12/18 17:16:12;;;;;;;3.70;3.00;;;5.00;76.00;;;;;;6302043;28;20182;-62
2023/12/18 17:19:14;;;;;;;5.90;3.80;;;;;;;;;;6256738;28;20192;-62
2023/12/18 17:22:15;;;;;;;6.90;4.27;;;;;;;;;;6284339;28;20220;-62
2023/12/18 17:25:17;;;;;;;4.93;3.60;;;;;;;;;;6284546;28;20230;-62
2023/12/18 17:28:18;;;;;;;8.23;4.40;;;;;;;;;;6313727;28;20201;-62
2023/12/18 17:31:19;;;;;;;5.47;4.17;;;;;;;;;;6313907;28;20188;-62
2023/12/18 17:34:20;;;;;;;5.57;3.30;;;;;;;;;;6295033;28;20189;-62